createdAt,value
2018-11-05T00:00:25.459Z,10.32
2018-11-05T00:02:54.229Z,10.28
2018-11-05T00:05:23.383Z,10.30
2018-11-05T00:07:52.563Z,10.37
2018-11-05T00:10:21.543Z,10.32
2018-11-05T00:12:50.662Z,10.29
2018-11-05T00:15:20.092Z,10.21
2018-11-05T00:17:49.335Z,10.18
2018-11-05T00:20:18.634Z,10.00
2018-11-05T00:22:48.078Z,9.92
2018-11-05T00:25:17.402Z,9.83
2018-11-05T00:27:46.633Z,9.86
2018-11-05T00:30:16.431Z,9.83
2018-11-05T00:32:45.567Z,9.72
2018-11-05T00:35:14.835Z,9.56
2018-11-05T00:37:44.076Z,9.60
2018-11-05T00:40:14.155Z,9.55
2018-11-05T00:42:44.050Z,9.46
2018-11-05T00:45:13.565Z,9.27
2018-11-05T00:47:43.287Z,9.31
2018-11-05T00:50:14.081Z,9.26
2018-11-05T00:52:43.354Z,9.20
2018-11-05T00:55:13.190Z,9.18
2018-11-05T00:57:42.251Z,9.17
2018-11-05T01:00:17.181Z,9.22
2018-11-05T01:02:46.202Z,9.03
2018-11-05T01:05:16.494Z,8.94
2018-11-05T01:07:46.283Z,8.59
2018-11-05T01:10:16.219Z,8.49
2018-11-05T01:12:45.171Z,8.28
2018-11-05T01:15:16.614Z,8.14
2018-11-05T01:17:45.678Z,8.03
2018-11-05T01:20:15.565Z,7.92
2018-11-05T01:22:44.627Z,7.89
2018-11-05T01:25:13.718Z,7.86
2018-11-05T01:27:42.883Z,7.77
2018-11-05T01:30:13.748Z,7.72
2018-11-05T01:32:42.819Z,7.72
2018-11-05T01:35:13.065Z,7.68
2018-11-05T01:37:42.575Z,7.68
2018-11-05T01:40:14.371Z,7.68
2018-11-05T01:42:43.987Z,7.70
2018-11-05T01:45:14.071Z,7.72
2018-11-05T01:47:43.618Z,7.70
2018-11-05T01:50:14.340Z,7.72
2018-11-05T01:52:44.084Z,7.65
2018-11-05T01:55:13.364Z,7.68
2018-11-05T01:57:42.870Z,7.65
2018-11-05T02:00:14.708Z,7.61
2018-11-05T02:02:44.638Z,7.67
2018-11-05T02:05:13.873Z,7.70
2018-11-05T02:07:44.203Z,7.70
2018-11-05T02:10:16.868Z,7.72
2018-11-05T02:12:46.188Z,7.70
2018-11-05T02:15:15.469Z,7.72
2018-11-05T02:17:46.077Z,7.82
2018-11-05T02:20:16.135Z,7.82
2018-11-05T02:22:45.054Z,7.81
2018-11-05T02:25:14.846Z,7.82
2018-11-05T02:27:44.064Z,7.88
2018-11-05T02:30:16.419Z,7.89
2018-11-05T02:32:45.907Z,7.88
2018-11-05T02:35:15.863Z,7.87
2018-11-05T02:37:45.724Z,7.85
2018-11-05T02:40:15.913Z,7.85
2018-11-05T02:42:45.459Z,7.87
2018-11-05T02:45:15.519Z,7.86
2018-11-05T02:47:44.602Z,7.83
2018-11-05T02:50:14.486Z,7.84
2018-11-05T02:52:44.927Z,7.83
2018-11-05T02:55:13.974Z,7.85
2018-11-05T02:57:43.030Z,7.82
2018-11-05T03:00:14.577Z,7.81
2018-11-05T03:02:43.723Z,7.77
2018-11-05T03:05:14.842Z,7.76
2018-11-05T03:07:44.945Z,7.79
2018-11-05T03:10:14.478Z,7.67
2018-11-05T03:12:44.302Z,7.58
2018-11-05T03:15:14.731Z,7.60
2018-11-05T03:17:43.814Z,7.56
2018-11-05T03:20:14.018Z,7.54
2018-11-05T03:22:43.903Z,7.52
2018-11-05T03:25:13.130Z,7.49
2018-11-05T03:27:42.534Z,7.51
2018-11-05T03:30:14.115Z,7.46
2018-11-05T03:32:43.285Z,7.43
2018-11-05T03:35:13.193Z,7.42
2018-11-05T03:37:43.827Z,7.38
2018-11-05T03:40:13.642Z,7.45
2018-11-05T03:42:43.300Z,7.39
2018-11-05T03:45:13.967Z,7.30
2018-11-05T03:47:43.193Z,7.27
2018-11-05T03:50:15.537Z,7.26
2018-11-05T03:52:45.262Z,7.27
2018-11-05T03:55:15.325Z,7.29
2018-11-05T03:57:44.614Z,7.30
2018-11-05T04:00:15.282Z,7.27
2018-11-05T04:02:44.517Z,7.21
2018-11-05T04:05:13.763Z,7.14
2018-11-05T04:07:42.829Z,7.17
2018-11-05T04:10:12.846Z,7.09
2018-11-05T04:12:42.205Z,7.00
2018-11-05T04:15:11.617Z,6.87
2018-11-05T04:17:40.651Z,6.75
2018-11-05T04:20:11.829Z,6.70
2018-11-05T04:22:41.295Z,6.65
2018-11-05T04:25:10.443Z,6.56
2018-11-05T04:27:39.610Z,6.49
2018-11-05T04:30:10.997Z,6.43
2018-11-05T04:32:40.457Z,6.33
2018-11-05T04:35:10.004Z,6.28
2018-11-05T04:37:39.131Z,6.21
2018-11-05T04:40:09.783Z,6.17
2018-11-05T04:42:38.913Z,6.09
2018-11-05T04:45:09.403Z,6.11
2018-11-05T04:47:38.848Z,6.08
2018-11-05T04:50:09.334Z,6.07
2018-11-05T04:52:38.960Z,6.06
2018-11-05T04:55:08.500Z,6.07
2018-11-05T04:57:37.782Z,6.05
2018-11-05T05:00:12.368Z,6.08
2018-11-05T05:02:42.519Z,6.08
2018-11-05T05:05:12.946Z,6.09
2018-11-05T05:07:42.599Z,6.07
2018-11-05T05:10:12.072Z,6.08
2018-11-05T05:12:42.167Z,6.12
2018-11-05T05:15:11.958Z,6.11
2018-11-05T05:17:41.504Z,6.15
2018-11-05T05:20:13.275Z,6.25
2018-11-05T05:22:42.908Z,6.41
2018-11-05T05:25:11.960Z,6.44
2018-11-05T05:27:41.606Z,6.54
2018-11-05T05:30:13.570Z,6.58
2018-11-05T05:32:43.054Z,6.86
2018-11-05T05:35:12.410Z,7.25
2018-11-05T05:37:42.230Z,7.62
2018-11-05T05:40:11.500Z,7.94
2018-11-05T05:42:41.281Z,8.19
2018-11-05T05:45:11.594Z,8.40
2018-11-05T05:47:41.131Z,8.85
2018-11-05T05:50:16.725Z,9.01
2018-11-05T05:52:47.300Z,9.48
2018-11-05T05:57:57.290Z,10.11
2018-11-05T06:00:26.451Z,10.63
2018-11-05T06:02:55.447Z,11.23
2018-11-05T06:05:24.574Z,11.14
2018-11-05T06:07:53.747Z,11.68
2018-11-05T06:10:23.129Z,12.20
2018-11-05T06:12:52.574Z,12.50
2018-11-05T06:15:21.662Z,12.81
2018-11-05T06:17:50.848Z,13.22
2018-11-05T06:20:21.046Z,13.14
2018-11-05T06:22:50.634Z,13.34
2018-11-05T06:25:19.793Z,13.37
2018-11-05T06:27:49.108Z,13.44
2018-11-05T06:30:20.496Z,13.68
2018-11-05T06:32:50.570Z,13.78
2018-11-05T06:35:20.297Z,13.70
2018-11-05T06:37:49.447Z,13.61
2018-11-05T06:40:19.996Z,13.66
2018-11-05T06:42:49.293Z,13.71
2018-11-05T06:45:19.673Z,13.83
2018-11-05T06:47:49.576Z,13.88
2018-11-05T06:50:21.698Z,14.08
2018-11-05T06:52:51.170Z,14.15
2018-11-05T06:55:20.416Z,14.40
2018-11-05T06:57:49.859Z,14.39
2018-11-05T07:00:21.288Z,14.49
2018-11-05T07:02:50.467Z,14.56
2018-11-05T07:05:19.818Z,14.68
2018-11-05T07:07:49.372Z,14.70
2018-11-05T07:10:19.020Z,14.65
2018-11-05T07:12:48.191Z,14.65
2018-11-05T07:15:18.574Z,14.49
2018-11-05T07:17:48.558Z,14.51
2018-11-05T07:20:18.841Z,14.77
2018-11-05T07:22:49.279Z,14.92
2018-11-05T07:25:18.379Z,15.07
2018-11-05T07:27:47.623Z,15.15
2018-11-05T07:30:19.155Z,14.79
2018-11-05T07:32:49.154Z,14.17
2018-11-05T07:35:18.150Z,14.36
2018-11-05T07:37:47.670Z,14.37
2018-11-05T07:40:17.758Z,14.51
2018-11-05T07:42:47.005Z,14.61
2018-11-05T07:45:18.303Z,14.47
2018-11-05T07:47:47.825Z,14.28
2018-11-05T07:50:18.098Z,14.12
2018-11-05T07:52:47.493Z,13.92
2018-11-05T07:55:17.578Z,13.03
2018-11-05T07:57:47.590Z,13.14
2018-11-05T08:00:22.459Z,12.89
2018-11-05T08:02:53.302Z,12.84
2018-11-05T08:05:23.126Z,12.61
2018-11-05T08:07:52.431Z,12.82
2018-11-05T08:10:21.611Z,12.82
2018-11-05T08:12:50.942Z,12.59
2018-11-05T08:15:21.730Z,12.61
2018-11-05T08:17:51.733Z,12.14
2018-11-05T08:20:20.878Z,12.19
2018-11-05T08:22:50.484Z,12.36
2018-11-05T08:25:19.586Z,12.21
2018-11-05T08:27:49.455Z,12.22
2018-11-05T08:30:21.190Z,11.97
2018-11-05T08:32:50.288Z,11.95
2018-11-05T08:35:19.622Z,12.00
2018-11-05T08:37:49.118Z,11.96
2018-11-05T08:40:21.311Z,12.22
2018-11-05T08:42:51.486Z,12.42
2018-11-05T08:45:21.855Z,12.41
2018-11-05T08:47:51.106Z,12.19
2018-11-05T08:50:21.714Z,12.14
2018-11-05T08:52:50.870Z,12.28
2018-11-05T08:55:21.379Z,12.45
2018-11-05T08:57:50.864Z,12.64
2018-11-05T09:00:25.133Z,12.71
2018-11-05T09:02:55.048Z,12.47
2018-11-05T09:05:24.310Z,12.38
2018-11-05T09:07:54.300Z,12.58
2018-11-05T09:10:23.921Z,12.80
2018-11-05T09:12:52.986Z,12.83
2018-11-05T09:15:22.933Z,12.95
2018-11-05T09:17:52.197Z,12.86
2018-11-05T09:20:21.379Z,12.73
2018-11-05T09:22:51.185Z,13.00
2018-11-05T09:25:20.589Z,12.77
2018-11-05T09:27:50.128Z,12.82
2018-11-05T09:30:20.689Z,13.09
2018-11-05T09:32:50.735Z,13.13
2018-11-05T09:35:19.949Z,13.23
2018-11-05T09:37:49.031Z,13.22
2018-11-05T09:40:20.609Z,13.29
2018-11-05T09:42:50.344Z,13.40
2018-11-05T09:45:23.102Z,13.43
2018-11-05T09:47:52.490Z,13.50
2018-11-05T09:50:21.945Z,13.58
2018-11-05T09:52:51.233Z,13.43
2018-11-05T09:55:20.431Z,13.45
2018-11-05T09:57:49.555Z,13.81
2018-11-05T10:00:20.481Z,13.94
2018-11-05T10:02:54.795Z,14.16
2018-11-05T10:05:24.226Z,13.88
2018-11-05T10:07:53.358Z,13.98
2018-11-05T10:10:22.660Z,13.86
2018-11-05T10:12:52.135Z,13.79
2018-11-05T10:15:21.259Z,13.66
2018-11-05T10:17:50.484Z,13.94
2018-11-05T10:20:24.308Z,14.13
2018-11-05T10:22:53.910Z,14.33
2018-11-05T10:25:23.089Z,14.37
2018-11-05T10:27:52.840Z,14.36
2018-11-05T10:30:24.256Z,14.15
2018-11-05T10:32:53.784Z,14.30
2018-11-05T10:35:27.958Z,14.56
2018-11-05T10:37:57.312Z,14.51
2018-11-05T10:40:26.749Z,14.41
2018-11-05T10:42:55.818Z,14.37
2018-11-05T10:45:25.007Z,14.41
2018-11-05T10:47:54.275Z,14.42
2018-11-05T10:50:23.727Z,14.53
2018-11-05T10:52:53.110Z,14.72
2018-11-05T10:55:22.135Z,14.85
2018-11-05T10:57:51.072Z,14.92
2018-11-05T11:00:26.426Z,14.89
2018-11-05T11:03:00.422Z,15.13
2018-11-05T11:05:30.687Z,15.37
2018-11-05T11:08:00.515Z,15.20
2018-11-05T11:10:30.289Z,15.22
2018-11-05T11:13:00.209Z,15.41
2018-11-05T11:15:29.500Z,15.61
2018-11-05T11:17:58.799Z,15.82
2018-11-05T11:20:28.367Z,15.61
2018-11-05T11:22:57.313Z,15.51
2018-11-05T11:25:26.299Z,15.65
2018-11-05T11:27:55.652Z,15.68
2018-11-05T11:30:24.699Z,15.56
2018-11-05T11:32:54.094Z,15.61
2018-11-05T11:35:23.501Z,15.67
2018-11-05T11:37:52.389Z,15.57
2018-11-05T11:40:22.960Z,15.73
2018-11-05T11:42:51.911Z,15.79
2018-11-05T11:45:21.937Z,16.03
2018-11-05T11:47:50.922Z,16.02
2018-11-05T11:50:20.153Z,16.16
2018-11-05T11:52:49.751Z,16.14
2018-11-05T11:55:19.796Z,16.16
2018-11-05T11:57:48.886Z,16.17
2018-11-05T12:00:19.982Z,16.25
2018-11-05T12:02:50.157Z,16.28
2018-11-05T12:05:19.449Z,16.38
2018-11-05T12:07:48.726Z,16.22
2018-11-05T12:10:19.464Z,16.20
2018-11-05T12:12:48.559Z,16.16
2018-11-05T12:15:18.364Z,16.22
2018-11-05T12:17:48.303Z,16.28
2018-11-05T12:20:18.703Z,16.39
2018-11-05T12:22:48.201Z,16.40
2018-11-05T12:25:17.562Z,16.30
2018-11-05T12:27:46.817Z,16.23
2018-11-05T12:30:18.015Z,16.30
2018-11-05T12:32:48.119Z,16.26
2018-11-05T12:35:17.288Z,16.40
2018-11-05T12:37:47.391Z,16.37
2018-11-05T12:40:17.367Z,16.27
2018-11-05T12:42:47.942Z,16.42
2018-11-05T12:45:17.391Z,16.49
2018-11-05T12:47:46.735Z,16.60
2018-11-05T12:50:21.292Z,16.51
2018-11-05T12:52:51.234Z,16.66
2018-11-05T12:55:20.298Z,16.72
2018-11-05T12:57:50.031Z,16.68
2018-11-05T13:00:21.445Z,16.70
2018-11-05T13:02:59.671Z,16.68
2018-11-05T13:05:30.227Z,16.65
2018-11-05T13:07:59.304Z,16.72
2018-11-05T13:10:28.395Z,16.68
2018-11-05T13:12:57.810Z,16.66
2018-11-05T13:15:27.082Z,16.73
2018-11-05T13:17:55.896Z,16.81
2018-11-05T13:20:25.376Z,16.79
2018-11-05T13:22:54.390Z,16.89
2018-11-05T13:25:23.287Z,16.93
2018-11-05T13:27:52.966Z,16.94
2018-11-05T13:30:21.762Z,16.94
2018-11-05T13:32:50.695Z,16.92
2018-11-05T13:35:21.147Z,16.91
2018-11-05T13:37:50.763Z,16.94
2018-11-05T13:40:20.516Z,16.92
2018-11-05T13:42:50.061Z,16.93
2018-11-05T13:45:19.764Z,16.89
2018-11-05T13:47:48.985Z,16.89
2018-11-05T13:50:18.204Z,16.93
2018-11-05T13:52:47.643Z,16.84
2018-11-05T13:55:17.258Z,16.92
2018-11-05T13:57:47.548Z,16.97
2018-11-05T14:00:17.937Z,16.92
2018-11-05T14:02:47.235Z,16.91
2018-11-05T14:05:16.323Z,16.93
2018-11-05T14:07:45.503Z,16.95
2018-11-05T14:10:18.090Z,16.94
2018-11-05T14:12:47.396Z,16.92
2018-11-05T14:15:16.832Z,16.97
2018-11-05T14:17:46.530Z,16.93
2018-11-05T14:20:16.520Z,16.86
2018-11-05T14:22:45.429Z,16.85
2018-11-05T14:25:16.022Z,16.83
2018-11-05T14:27:46.726Z,16.71
2018-11-05T14:30:15.872Z,16.71
2018-11-05T14:32:45.984Z,16.62
2018-11-05T14:35:14.990Z,16.62
2018-11-05T14:37:44.232Z,16.55
2018-11-05T14:40:14.663Z,16.53
2018-11-05T14:42:44.429Z,16.46
2018-11-05T14:45:18.239Z,16.41
2018-11-05T14:47:47.986Z,16.40
2018-11-05T14:50:23.715Z,16.39
2018-11-05T14:52:52.709Z,16.29
2018-11-05T14:55:21.871Z,16.21
2018-11-05T14:57:52.149Z,16.17
2018-11-05T15:00:28.405Z,16.09
2018-11-05T15:02:58.083Z,16.07
2018-11-05T15:05:27.214Z,16.04
2018-11-05T15:07:56.306Z,16.01
2018-11-05T15:10:26.114Z,15.99
2018-11-05T15:12:55.411Z,15.93
2018-11-05T15:15:24.520Z,15.87
2018-11-05T15:17:53.904Z,15.77
2018-11-05T15:20:23.929Z,15.68
2018-11-05T15:22:52.935Z,15.62
2018-11-05T15:25:22.566Z,15.52
2018-11-05T15:27:52.448Z,15.38
2018-11-05T15:30:22.890Z,15.34
2018-11-05T15:32:52.274Z,15.28
2018-11-05T15:35:21.594Z,15.22
2018-11-05T15:37:51.411Z,15.09
2018-11-05T15:40:21.959Z,14.97
2018-11-05T15:42:50.698Z,14.95
2018-11-05T15:45:20.999Z,14.88
2018-11-05T15:47:50.364Z,14.98
2018-11-05T15:50:20.597Z,15.02
2018-11-05T15:52:50.090Z,15.01
2018-11-05T15:55:18.958Z,14.94
2018-11-05T15:57:47.940Z,14.96
2018-11-05T16:00:22.336Z,14.97
2018-11-05T16:02:53.946Z,14.98
2018-11-05T16:05:23.547Z,14.95
2018-11-05T16:07:52.651Z,14.98
2018-11-05T16:10:21.947Z,14.99
2018-11-05T16:12:51.327Z,14.98
2018-11-05T16:15:20.362Z,14.94
2018-11-05T16:17:49.963Z,14.91
2018-11-05T16:20:20.342Z,14.87
2018-11-05T16:22:50.248Z,14.79
2018-11-05T16:25:19.391Z,14.72
2018-11-05T16:27:48.527Z,14.65
2018-11-05T16:30:18.734Z,14.63
2018-11-05T16:32:48.464Z,14.57
2018-11-05T16:35:17.598Z,14.52
2018-11-05T16:37:46.842Z,14.44
2018-11-05T16:40:16.772Z,14.36
2018-11-05T16:42:46.951Z,14.30
2018-11-05T16:45:15.961Z,14.28
2018-11-05T16:47:45.155Z,14.36
2018-11-05T16:50:26.110Z,14.39
2018-11-05T16:52:55.371Z,14.35
2018-11-05T16:55:24.417Z,14.35
2018-11-05T16:57:53.596Z,14.27
2018-11-05T17:00:22.707Z,14.16
2018-11-05T17:02:51.779Z,14.13
2018-11-05T17:05:21.162Z,14.10
2018-11-05T17:07:50.128Z,14.09
2018-11-05T17:10:19.208Z,13.94
2018-11-05T17:12:48.108Z,13.82
2018-11-05T17:15:18.140Z,13.71
2018-11-05T17:17:47.517Z,13.55
2018-11-05T17:20:18.336Z,13.44
2018-11-05T17:22:47.552Z,13.31
2018-11-05T17:25:16.924Z,13.15
2018-11-05T17:27:46.691Z,13.08
2018-11-05T17:30:17.963Z,12.88
2018-11-05T17:32:47.121Z,12.74
2018-11-05T17:35:16.642Z,12.58
2018-11-05T17:37:46.414Z,12.39
2018-11-05T17:40:16.663Z,12.26
2018-11-05T17:42:45.947Z,12.12
2018-11-05T17:45:16.281Z,11.98
2018-11-05T17:47:45.387Z,11.93
2018-11-05T17:50:16.226Z,11.85
2018-11-05T17:52:45.410Z,11.69
2018-11-05T17:55:14.638Z,11.61
2018-11-05T17:57:45.154Z,11.48
2018-11-05T18:00:17.571Z,11.37
2018-11-05T18:02:47.096Z,11.33
2018-11-05T18:05:16.692Z,11.22
2018-11-05T18:07:45.731Z,11.14
2018-11-05T18:10:14.611Z,11.13
2018-11-05T18:12:44.215Z,10.98
2018-11-05T18:15:13.854Z,10.97
2018-11-05T18:17:44.259Z,10.95
2018-11-05T18:20:15.471Z,10.84
2018-11-05T18:22:44.858Z,10.85
2018-11-05T18:25:16.273Z,10.82
2018-11-05T18:27:45.610Z,10.81
2018-11-05T18:30:15.158Z,10.80
2018-11-05T18:32:44.277Z,10.76
2018-11-05T18:35:14.193Z,10.70
2018-11-05T18:37:44.328Z,10.71
2018-11-05T18:40:14.623Z,10.71
2018-11-05T18:42:44.551Z,10.69
2018-11-05T18:45:13.702Z,10.59
2018-11-05T18:47:42.634Z,10.58
2018-11-05T18:50:13.305Z,10.58
2018-11-05T18:52:42.689Z,10.58
2018-11-05T18:55:13.383Z,10.59
2018-11-05T18:57:42.426Z,10.57
2018-11-05T19:00:25.342Z,10.54
2018-11-05T19:02:55.801Z,10.56
2018-11-05T19:05:25.743Z,10.54
2018-11-05T19:07:55.295Z,10.51
2018-11-05T19:10:24.395Z,10.48
2018-11-05T19:12:54.103Z,10.46
2018-11-05T19:15:23.173Z,10.43
2018-11-05T19:17:52.383Z,10.39
2018-11-05T19:20:21.807Z,10.35
2018-11-05T19:22:51.312Z,10.35
2018-11-05T19:25:20.681Z,10.31
2018-11-05T19:27:49.892Z,10.30
2018-11-05T19:30:24.076Z,10.27
2018-11-05T19:32:53.203Z,10.21
2018-11-05T19:35:22.259Z,10.17
2018-11-05T19:37:51.766Z,10.20
2018-11-05T19:40:21.541Z,10.15
2018-11-05T19:42:50.930Z,10.06
2018-11-05T19:45:21.269Z,10.09
2018-11-05T19:47:50.435Z,10.03
2018-11-05T19:50:20.578Z,9.97
2018-11-05T19:52:50.311Z,9.89
2018-11-05T19:55:19.971Z,9.81
2018-11-05T19:57:50.291Z,9.78
2018-11-05T20:00:22.082Z,9.73
2018-11-05T20:02:51.291Z,9.69
2018-11-05T20:05:20.297Z,9.67
2018-11-05T20:07:50.783Z,9.54
2018-11-05T20:10:19.812Z,9.51
2018-11-05T20:12:49.012Z,9.42
2018-11-05T20:15:18.455Z,9.41
2018-11-05T20:17:48.330Z,9.38
2018-11-05T20:20:18.550Z,9.35
2018-11-05T20:22:47.623Z,9.29
2018-11-05T20:25:16.638Z,9.22
2018-11-05T20:27:45.886Z,9.26
2018-11-05T20:30:18.073Z,9.24
2018-11-05T20:32:48.982Z,9.10
2018-11-05T20:35:17.340Z,9.06
2018-11-05T20:37:46.230Z,9.04
2018-11-05T20:40:16.638Z,8.95
2018-11-05T20:42:46.796Z,8.89
2018-11-05T20:45:16.832Z,8.81
2018-11-05T20:47:45.786Z,8.81
2018-11-05T20:50:15.647Z,8.81
2018-11-05T20:52:44.765Z,8.77
2018-11-05T20:55:14.999Z,8.73
2018-11-05T20:57:44.410Z,8.77
2018-11-05T21:00:14.945Z,8.72
2018-11-05T21:02:43.978Z,8.70
2018-11-05T21:05:13.106Z,8.70
2018-11-05T21:07:42.999Z,8.73
2018-11-05T21:10:13.569Z,8.70
2018-11-05T21:12:43.090Z,8.58
2018-11-05T21:15:15.447Z,8.55
2018-11-05T21:17:44.878Z,8.56
2018-11-05T21:20:14.290Z,8.50
2018-11-05T21:22:44.044Z,8.45
2018-11-05T21:25:13.297Z,8.42
2018-11-05T21:27:42.914Z,8.41
2018-11-05T21:30:14.033Z,8.39
2018-11-05T21:32:43.102Z,8.39
2018-11-05T21:35:14.225Z,8.28
2018-11-05T21:37:43.615Z,8.21
2018-11-05T21:40:14.050Z,8.11
2018-11-05T21:42:43.294Z,8.08
2018-11-05T21:45:13.627Z,7.97
2018-11-05T21:47:43.129Z,8.02
2018-11-05T21:50:14.009Z,8.00
2018-11-05T21:52:43.848Z,8.00
2018-11-05T21:55:13.101Z,8.05
2018-11-05T21:57:43.423Z,8.03
2018-11-05T22:00:17.358Z,7.98
2018-11-05T22:02:51.437Z,7.91
2018-11-05T22:05:20.996Z,7.85
2018-11-05T22:07:50.406Z,7.80
2018-11-05T22:10:20.198Z,7.66
2018-11-05T22:12:49.662Z,7.62
2018-11-05T22:15:18.998Z,7.71
2018-11-05T22:17:48.294Z,7.60
2018-11-05T22:20:17.612Z,7.53
2018-11-05T22:22:46.870Z,7.51
2018-11-05T22:25:16.058Z,7.44
2018-11-05T22:27:45.400Z,7.42
2018-11-05T22:30:15.222Z,7.33
2018-11-05T22:32:45.639Z,7.27
2018-11-05T22:35:15.171Z,7.26
2018-11-05T22:37:53.689Z,7.16
2018-11-05T22:40:24.904Z,7.13
2018-11-05T22:42:54.026Z,7.11
2018-11-05T22:45:24.341Z,7.05
2018-11-05T22:47:54.122Z,6.98
2018-11-05T22:50:23.254Z,6.97
2018-11-05T22:52:55.463Z,6.97
2018-11-05T22:55:26.047Z,6.96
2018-11-05T22:57:57.908Z,6.90
2018-11-05T23:00:35.135Z,6.87
2018-11-05T23:03:10.007Z,6.97
2018-11-05T23:05:45.207Z,7.02
2018-11-05T23:08:16.006Z,7.01
2018-11-05T23:10:52.307Z,6.94
2018-11-05T23:13:26.771Z,6.97
2018-11-05T23:15:55.955Z,6.92
2018-11-05T23:18:25.382Z,6.89
2018-11-05T23:20:55.271Z,6.82
2018-11-05T23:23:24.156Z,6.80
2018-11-05T23:25:53.662Z,6.76
2018-11-05T23:28:23.061Z,6.73
2018-11-05T23:30:53.271Z,6.65
2018-11-05T23:33:23.627Z,6.63
2018-11-05T23:35:54.489Z,6.55
2018-11-05T23:38:24.308Z,6.48
2018-11-05T23:40:54.889Z,6.48
2018-11-05T23:43:24.441Z,6.43
2018-11-05T23:45:54.390Z,6.34
2018-11-05T23:48:24.606Z,6.36
2018-11-05T23:50:55.963Z,6.38
2018-11-05T23:53:25.725Z,6.45
2018-11-05T23:55:56.153Z,6.34
2018-11-05T23:58:28.091Z,6.26
